Campbell River, Canada
Current Conditions -  °F | °C
As of 4:00 PM on Wednesday 22 Oct 2014 (Local Time) from CYBL Reporting Station
Overcast Overcast  
Wind Chill: 54°   Ceiling: 6000
Heat Index: 54°   Visibility: 12mi
Dew Point: 50°   Wind: 9mph
Humidity: 88%   Direction: 100°E
Pressure: 29.52"   Gusts: NA
Location:  50.02°N, 125.25°W
Report Text: CYBL 222300Z 10008KT 12SM SCT008 BKN060 OVC140 12/10 A2952 RMK SF4SC3AC1 PRESFR SLP997 DENSITY ALT 500FT
Loading
Personal Weather Stations






























Interactive Weather Map
Tropical Storm Tracking
New forecast layout! Learn more

10-Day Weather Forecast

Advertisements
Track Severe Weather on mobile